Airfield :
LOGIN :

Register | Disclaimer

   EN    FR    IT 

 










Legend :    VFR   Marginal VFR   IFR   Intensive IFR   Very Intensive IFR
Visi :
Ceiling :
>= 8 km
>= 3000ft
5 to 8 km
1000 to 3000 ft
1500m to 5 km
500 to 1000 ft
800 to 1500m
200 to 500 ft
< 800m
< 200 ft
Symbols :   Thunderstorms  Fog  Heavy snow  Heavy precipitations  Wind > 20 kt
SIGMETs :     Misc.  Thunderstorms  Icing  Turbulence  Mountain Waves  Volcanic Ashes






- Airport Elevation : 529 ft
- IATA code : CHR


LFLX - Chateauroux

CURRENT METAR :
  • 191300Z AUTO VRB03KT 9000 OVC004 06/05 Q1018 BECMG SCT020

EXPIRED METARs :
  • 191230Z AUTO VRB02KT 6000 OVC003 06/06 Q1018 BECMG SCT020
  • 191200Z AUTO VRB03KT 7000 OVC003 06/05 Q1018 BECMG SCT020
  • 191130Z AUTO VRB03KT 3600 BR OVC003 05/05 Q1018 BECMG 2000 BR SCT020
  • 191100Z AUTO VRB02KT 0500 0350 R21/1100U FG VV/// 05/05 Q1018 BECMG 2000 BR SCT020
  • 191030Z AUTO VRB02KT 0250 R21/0325N FG VV/// 04/04 Q1019 BECMG 2000 BR SCT020

TAF TAF LFLX
Valid from the 19 at 12:00 until the 20 at 18:00 UTC


191100Z 1912/2018 VRB03KT 5000 BR BKN004
BECMG 1912/1914 9999 NSW SCT020
PROB40
TEMPO 1918/2006 3000 BR BKN004
PROB40
TEMPO 1922/2001 0200 FG VV///
BECMG 2007/2010 10010KT BKN011



MET'MAP, your aeronautical weather chart ! - Copyright ORBIFLY December 2007 - Disclaimer

ORBIFLY MET'MAP TEAM :

Programming & Development : Alexandra Zaïnal
Concept & Development : Baudouin d'Aumeries
Co-Development & Prog : Marc-Olivier Méhu
Technical & hardware support : Manuel Goepfert

Contact : metmap@orbifly.com




SOURCES & CREDITS :

   NOAA